Time;durP1;ratioP1;P1;durP2;ratioP2;P2;SDS_P1;SDS_P2;PMS_P1;PMS_P2;Temp;Humidity;BMP_temperature;BMP_pressure;BME280_temperature;BME280_humidity;BME280_pressure;Samples;Min_cycle;Max_cycle;Signal;HPM_P1;HPM_P2
2024/02/20 00:01:22;;;;;;;21.27;3.38;;;;;;;11.68;77.46;102949.09;5069412;28;20031;-47
2024/02/20 00:03:47;;;;;;;25.17;3.53;;;;;;;11.88;76.69;102950.84;5068081;28;20101;-47
2024/02/20 00:06:12;;;;;;;27.63;3.50;;;;;;;11.62;77.99;102951.44;5070106;28;20032;-47
2024/02/20 00:08:38;;;;;;;27.17;4.10;;;;;;;11.70;78.06;102952.66;5068788;28;20033;-46
2024/02/20 00:11:05;;;;;;;23.80;3.20;;;;;;;11.53;78.15;102958.88;5069218;28;20039;-47
2024/02/20 00:13:30;;;;;;;27.48;3.67;;;;;;;11.73;78.23;102947.56;5069300;28;20036;-46
2024/02/20 00:15:56;;;;;;;32.88;4.50;;;;;;;11.72;77.95;102943.16;5069198;28;20029;-49
2024/02/20 00:18:21;;;;;;;27.73;3.75;;;;;;;11.51;78.21;102958.84;5069380;28;20032;-48
2024/02/20 00:20:47;;;;;;;27.88;3.38;;;;;;;11.88;77.36;102945.63;5068333;28;20123;-48
2024/02/20 00:23:14;;;;;;;22.83;3.08;;;;;;;12.04;77.00;102940.19;5069072;28;20040;-48
2024/02/20 00:25:42;;;;;;;28.17;3.90;;;;;;;11.72;77.79;102941.44;5067838;28;20031;-49
2024/02/20 00:28:07;;;;;;;25.75;3.47;;;;;;;11.79;77.50;102942.63;5069271;28;20039;-47
2024/02/20 00:30:33;;;;;;;25.65;3.00;;;;;;;11.67;78.22;102949.91;5067184;28;20033;-46
2024/02/20 00:32:58;;;;;;;32.75;4.25;;;;;;;11.75;78.32;102953.78;5068855;28;20572;-48
2024/02/20 00:35:23;;;;;;;26.73;3.50;;;;;;;12.02;77.19;102946.16;5068885;28;20048;-48
2024/02/20 00:37:49;;;;;;;27.90;3.92;;;;;;;12.08;77.23;102943.78;5068459;28;20494;-46
2024/02/20 00:40:14;;;;;;;28.65;3.28;;;;;;;11.94;77.10;102953.72;5068719;28;20040;-49
2024/02/20 00:42:40;;;;;;;26.02;3.28;;;;;;;12.06;77.36;102953.31;5067093;28;20395;-48
2024/02/20 00:45:06;;;;;;;26.67;3.20;;;;;;;12.09;76.94;102949.09;5068984;28;20028;-50
2024/02/20 00:47:31;;;;;;;26.88;3.30;;;;;;;12.28;76.11;102949.81;5068886;28;20682;-48
2024/02/20 00:49:57;;;;;;;23.38;3.40;;;;;;;12.26;76.16;102949.75;5068415;28;20036;-49
2024/02/20 00:52:24;;;;;;;30.70;3.33;;;;;;;12.52;75.84;102940.31;5068686;28;20032;-49
2024/02/20 00:54:49;;;;;;;26.38;3.17;;;;;;;12.40;75.35;102945.97;5068449;28;20124;-49
2024/02/20 00:57:15;;;;;;;24.48;4.20;;;;;;;12.15;76.26;102951.06;5068762;28;20147;-46
2024/02/20 00:59:40;;;;;;;21.13;2.78;;;;;;;12.37;75.68;102952.81;5069659;28;20052;-47
2024/02/20 01:02:10;;;;;;;22.58;2.92;;;;;;;12.42;75.95;102951.25;5072385;28;20036;-46
2024/02/20 01:04:41;;;;;;;26.10;3.03;;;;;;;12.23;75.25;102953.97;5071748;28;20028;-45
2024/02/20 01:07:07;;;;;;;26.35;3.58;;;;;;;12.35;75.11;102951.84;5072070;28;20044;-45
2024/02/20 01:09:33;;;;;;;25.55;3.20;;;;;;;12.24;75.11;102954.06;5071204;28;20028;-50
2024/02/20 01:11:59;;;;;;;22.95;3.35;;;;;;;12.36;75.07;102958.88;5070681;28;20083;-47
2024/02/20 01:14:24;;;;;;;21.33;3.40;;;;;;;12.54;74.05;102949.13;5071975;28;20490;-48
2024/02/20 01:16:50;;;;;;;23.25;3.13;;;;;;;12.13;74.54;102944.91;5070765;28;20508;-46
2024/02/20 01:19:15;;;;;;;22.77;2.85;;;;;;;12.45;73.73;102949.63;5072024;28;20060;-46
2024/02/20 01:21:40;;;;;;;20.63;3.25;;;;;;;12.31;74.00;102950.84;5070860;28;20570;-45
2024/02/20 01:24:06;;;;;;;22.98;3.38;;;;;;;12.26;74.16;102954.97;5071894;28;20082;-48
2024/02/20 01:26:31;;;;;;;27.25;3.58;;;;;;;12.16;74.82;102948.50;5071696;28;20025;-47
2024/02/20 01:28:58;;;;;;;22.10;3.17;;;;;;;12.19;74.32;102950.38;5071351;28;20032;-47
2024/02/20 01:31:24;;;;;;;21.00;3.00;;;;;;;12.19;74.44;102951.25;5071313;28;20107;-48
2024/02/20 01:33:50;;;;;;;26.33;3.83;;;;;;;12.36;73.83;102956.25;5071363;28;20044;-47
2024/02/20 01:36:15;;;;;;;21.85;3.70;;;;;;;12.42;73.54;102959.09;5071838;28;20127;-47
2024/02/20 01:38:41;;;;;;;19.85;3.65;;;;;;;11.96;75.88;102958.97;5071372;28;20048;-46
2024/02/20 01:41:07;;;;;;;24.15;3.63;;;;;;;12.16;75.95;102953.75;5071217;28;20098;-44
2024/02/20 01:43:34;;;;;;;25.08;3.55;;;;;;;12.12;75.51;102957.06;5069821;28;20033;-46
2024/02/20 01:45:59;;;;;;;21.15;3.88;;;;;;;12.25;74.69;102953.22;5071424;28;20032;-47
2024/02/20 01:48:25;;;;;;;23.40;3.88;;;;;;;12.51;73.87;102948.97;5071690;28;20039;-45
2024/02/20 01:50:51;;;;;;;24.73;3.65;;;;;;;12.24;74.43;102943.59;5070473;28;20048;-49
2024/02/20 01:53:16;;;;;;;22.80;3.53;;;;;;;12.27;74.59;102950.66;5071368;28;20036;-49
2024/02/20 01:55:42;;;;;;;19.10;3.72;;;;;;;12.18;74.12;102952.09;5070859;28;20024;-50
2024/02/20 01:58:07;;;;;;;23.73;3.70;;;;;;;12.31;73.89;102944.72;5071177;28;20039;-47
2024/02/20 02:00:33;;;;;;;21.45;3.78;;;;;;;12.34;73.92;102945.72;5070193;28;20032;-46
2024/02/20 02:02:59;;;;;;;20.00;3.45;;;;;;;12.19;74.10;102935.56;5071182;28;20116;-46
2024/02/20 02:05:24;;;;;;;26.73;3.70;;;;;;;12.51;72.63;102936.78;5071181;28;20052;-46
2024/02/20 02:07:50;;;;;;;23.33;3.55;;;;;;;12.49;72.45;102937.59;5070875;28;20067;-48
2024/02/20 02:10:15;;;;;;;22.00;3.50;;;;;;;12.02;73.98;102933.97;5069866;28;20462;-49
2024/02/20 02:12:41;;;;;;;18.70;3.38;;;;;;;12.29;73.51;102934.19;5070137;28;20040;-48
2024/02/20 02:15:07;;;;;;;27.83;3.88;;;;;;;12.26;73.25;102941.91;5071165;28;20036;-44
2024/02/20 02:17:33;;;;;;;20.00;3.20;;;;;;;12.53;72.16;102939.47;5070883;28;20037;-48
2024/02/20 02:19:59;;;;;;;20.77;3.35;;;;;;;12.44;72.19;102937.38;5070481;28;20024;-47
2024/02/20 02:22:25;;;;;;;16.90;3.28;;;;;;;12.48;72.22;102941.03;5070984;28;20041;-47
2024/02/20 02:24:50;;;;;;;21.70;3.38;;;;;;;12.19;73.48;102943.41;5070564;28;20063;-46
2024/02/20 02:27:15;;;;;;;22.92;3.60;;;;;;;12.34;73.44;102945.72;5070916;28;20028;-45
2024/02/20 02:29:41;;;;;;;21.20;3.50;;;;;;;12.50;72.69;102947.22;5069920;28;20043;-45
2024/02/20 02:32:06;;;;;;;19.38;3.50;;;;;;;12.29;73.63;102942.03;5070804;28;20045;-50
2024/02/20 02:34:33;;;;;;;20.50;3.78;;;;;;;12.52;72.57;102938.59;5070135;28;20033;-49
2024/02/20 02:36:58;;;;;;;22.25;4.25;;;;;;;12.51;72.59;102935.91;5070476;28;20518;-45
2024/02/20 02:39:25;;;;;;;26.50;3.60;;;;;;;12.36;72.99;102932.72;5070628;28;20029;-46
2024/02/20 02:41:51;;;;;;;17.45;3.33;;;;;;;12.39;73.15;102938.94;5069604;28;20040;-49
2024/02/20 02:44:17;;;;;;;27.65;3.90;;;;;;;12.22;73.56;102941.72;5071072;28;20077;-46
2024/02/20 02:46:43;;;;;;;18.40;3.63;;;;;;;12.28;73.79;102950.72;5070985;28;20029;-46
2024/02/20 02:49:08;;;;;;;22.13;3.20;;;;;;;12.35;73.84;102951.84;5071149;28;20043;-47
2024/02/20 02:51:34;;;;;;;21.17;3.35;;;;;;;12.10;73.93;102952.59;5069618;28;20071;-47
2024/02/20 02:54:00;;;;;;;20.75;3.08;;;;;;;12.39;73.54;102943.28;5070469;28;20086;-48
2024/02/20 02:56:28;;;;;;;34.05;3.70;;;;;;;12.24;74.35;102942.69;5070314;28;20029;-47
2024/02/20 02:58:54;;;;;;;19.00;3.83;;;;;;;12.29;74.34;102949.00;5069647;28;20092;-46
2024/02/20 03:03:47;;;;;;;24.23;3.92;;;;;;;12.18;74.84;102946.84;5046357;28;20037;-47
2024/02/20 03:06:12;;;;;;;22.13;3.42;;;;;;;12.37;74.22;102948.47;5050017;28;20127;-48
2024/02/20 03:08:38;;;;;;;29.05;4.30;;;;;;;12.29;74.35;102951.59;5049322;28;20037;-48
2024/02/20 03:11:07;;;;;;;25.83;4.03;;;;;;;12.08;75.27;102942.06;5049582;28;20403;-49
2024/02/20 03:13:33;;;;;;;25.90;3.70;;;;;;;12.09;74.94;102941.25;5049329;28;20055;-49
2024/02/20 03:16:03;;;;;;;22.73;3.95;;;;;;;12.40;74.32;102932.00;5031371;28;20065;-49
2024/02/20 03:18:32;;;;;;;27.70;4.10;;;;;;;12.28;74.75;102936.75;5030601;28;20120;-47
2024/02/20 03:21:00;;;;;;;28.67;3.75;;;;;;;12.34;73.82;102939.59;5029730;28;20063;-51
2024/02/20 03:23:28;;;;;;;19.08;3.55;;;;;;;12.39;74.31;102923.25;5030057;28;20459;-48
2024/02/20 03:25:54;;;;;;;26.52;3.72;;;;;;;12.11;75.45;102928.25;5027184;28;20041;-51
2024/02/20 03:28:19;;;;;;;23.55;3.78;;;;;;;12.36;74.62;102925.75;5030545;28;20029;-47
2024/02/20 03:30:44;;;;;;;29.60;4.43;;;;;;;12.14;75.29;102920.50;5029024;28;20037;-46
2024/02/20 03:33:10;;;;;;;22.50;3.45;;;;;;;12.39;74.21;102924.97;5029767;28;20587;-47
2024/02/20 03:35:36;;;;;;;25.30;3.60;;;;;;;12.20;75.23;102920.75;5029810;28;20111;-45
2024/02/20 03:38:02;;;;;;;29.40;3.58;;;;;;;12.28;74.83;102919.34;5030466;28;20033;-48
2024/02/20 03:40:27;;;;;;;22.00;4.20;;;;;;;12.35;74.62;102913.50;5029291;28;20132;-47
2024/02/20 03:42:53;;;;;;;25.00;3.60;;;;;;;12.63;73.57;102911.91;5029060;28;20037;-49
2024/02/20 03:45:19;;;;;;;29.58;3.92;;;;;;;12.45;73.70;102912.13;5029646;28;20032;-52
2024/02/20 03:47:44;;;;;;;29.33;4.07;;;;;;;12.05;75.21;102909.69;5029223;28;20033;-46
2024/02/20 03:50:09;;;;;;;27.38;4.00;;;;;;;12.15;75.84;102915.34;5029268;28;20087;-50
2024/02/20 03:52:35;;;;;;;25.30;3.22;;;;;;;12.44;74.33;102911.22;5028844;28;20514;-47
2024/02/20 03:55:00;;;;;;;25.17;3.72;;;;;;;12.19;74.75;102908.53;5029620;28;20036;-46
2024/02/20 03:57:25;;;;;;;21.42;3.58;;;;;;;12.41;74.91;102905.00;5029810;28;20026;-47
2024/02/20 03:59:53;;;;;;;28.98;3.97;;;;;;;11.99;75.70;102902.50;5028508;28;20045;-47
2024/02/20 04:02:19;;;;;;;25.63;4.10;;;;;;;12.27;74.74;102903.56;5029389;28;20064;-46
2024/02/20 04:04:44;;;;;;;33.85;4.15;;;;;;;12.38;74.67;102899.66;5029083;28;20049;-49
2024/02/20 04:07:10;;;;;;;27.38;3.83;;;;;;;12.32;74.63;102899.44;5028075;28;20052;-47
2024/02/20 04:09:36;;;;;;;28.00;4.47;;;;;;;12.49;73.89;102895.72;5028703;28;20120;-48
2024/02/20 04:12:01;;;;;;;19.70;3.45;;;;;;;12.25;74.60;102893.06;5029619;28;20045;-46
2024/02/20 04:14:26;;;;;;;26.13;3.97;;;;;;;12.16;74.47;102900.53;5029481;28;20064;-48
2024/02/20 04:16:52;;;;;;;23.35;3.80;;;;;;;12.33;74.67;102886.41;5029244;28;20033;-45
2024/02/20 04:19:17;;;;;;;26.52;4.13;;;;;;;12.35;74.54;102889.06;5029494;28;20033;-46
2024/02/20 04:21:42;;;;;;;29.38;4.07;;;;;;;12.34;74.60;102896.03;5028910;28;20030;-48
2024/02/20 04:24:08;;;;;;;21.92;3.70;;;;;;;12.17;75.22;102900.63;5029725;28;20037;-45
2024/02/20 04:26:33;;;;;;;19.35;3.90;;;;;;;12.15;75.21;102904.00;5029043;28;20499;-45
2024/02/20 04:28:58;;;;;;;25.85;4.40;;;;;;;11.98;75.87;102905.94;5029157;28;20026;-47
2024/02/20 04:31:24;;;;;;;19.75;3.90;;;;;;;12.18;75.00;102904.13;5028824;28;20060;-49
2024/02/20 04:33:49;;;;;;;25.33;4.15;;;;;;;12.09;75.08;102895.91;5029998;28;20065;-48
2024/02/20 04:36:15;;;;;;;18.70;3.67;;;;;;;12.12;75.18;102896.94;5034326;28;20499;-51
2024/02/20 04:38:40;;;;;;;21.58;4.47;;;;;;;12.14;74.99;102897.88;5040824;28;20046;-45
2024/02/20 04:41:06;;;;;;;28.92;4.03;;;;;;;12.13;74.91;102895.22;5038527;28;20116;-48
2024/02/20 04:43:31;;;;;;;23.40;3.65;;;;;;;11.94;75.54;102901.44;5034444;28;20077;-51
2024/02/20 04:45:57;;;;;;;28.73;3.70;;;;;;;11.84;75.77;102904.50;5033541;28;20030;-51
2024/02/20 04:48:22;;;;;;;28.17;4.30;;;;;;;12.14;74.74;102902.19;5033054;28;20121;-47
2024/02/20 04:50:47;;;;;;;27.38;4.53;;;;;;;12.03;75.47;102908.72;5032135;28;20035;-47
2024/02/20 04:53:13;;;;;;;27.65;4.20;;;;;;;12.01;75.58;102913.03;5032864;28;20124;-46
2024/02/20 04:55:38;;;;;;;26.27;4.10;;;;;;;11.84;76.14;102924.50;5032280;28;20034;-47
2024/02/20 04:58:05;;;;;;;21.63;4.28;;;;;;;12.18;74.88;102925.03;5032838;28;20033;-47
2024/02/20 05:00:31;;;;;;;18.33;3.42;;;;;;;12.39;73.79;102909.28;5032081;28;20120;-48
2024/02/20 05:02:56;;;;;;;29.58;3.85;;;;;;;12.33;73.83;102898.56;5030364;28;20125;-48
2024/02/20 05:05:21;;;;;;;19.27;3.80;;;;;;;12.33;73.89;102901.19;5032281;28;20074;-46
2024/02/20 05:07:48;;;;;;;31.30;3.97;;;;;;;12.34;73.33;102890.78;5032229;28;20033;-46
2024/02/20 05:10:14;;;;;;;25.48;4.00;;;;;;;12.21;74.14;102891.16;5031739;28;20491;-48
2024/02/20 05:12:43;;;;;;;29.73;3.90;;;;;;;12.31;73.82;102885.47;5031782;28;20124;-49
2024/02/20 05:15:09;;;;;;;24.90;3.90;;;;;;;12.25;74.08;102882.63;5032521;28;20029;-48
2024/02/20 05:17:34;;;;;;;26.70;3.90;;;;;;;12.33;73.70;102891.63;5032071;28;20151;-48
2024/02/20 05:19:59;;;;;;;24.02;4.35;;;;;;;12.30;74.17;102891.53;5030766;28;20033;-48
2024/02/20 05:22:27;;;;;;;23.17;4.13;;;;;;;12.35;73.37;102892.59;5030786;28;20026;-49
2024/02/20 05:24:53;;;;;;;23.25;3.90;;;;;;;12.33;73.24;102882.88;5032085;28;20042;-46
2024/02/20 05:27:18;;;;;;;24.15;4.50;;;;;;;12.19;73.78;102885.88;5032534;28;20056;-46
2024/02/20 05:29:44;;;;;;;20.48;3.85;;;;;;;12.22;73.73;102878.97;5031855;28;20168;-51
2024/02/20 05:32:09;;;;;;;26.63;4.88;;;;;;;12.02;75.06;102889.53;5031038;28;20050;-49
2024/02/20 05:34:34;;;;;;;23.70;4.03;;;;;;;12.22;73.88;102873.75;5031655;28;20041;-46
2024/02/20 05:37:00;;;;;;;26.02;4.07;;;;;;;12.14;74.26;102879.56;5032090;28;20045;-47
2024/02/20 05:39:25;;;;;;;22.30;4.53;;;;;;;12.24;73.63;102880.81;5032230;28;20029;-48
2024/02/20 05:41:50;;;;;;;29.02;4.70;;;;;;;12.08;74.84;102886.28;5031187;28;20039;-49
2024/02/20 05:44:16;;;;;;;26.58;4.65;;;;;;;11.98;75.22;102890.25;5031747;28;20040;-50
2024/02/20 05:46:41;;;;;;;23.67;4.50;;;;;;;12.01;74.56;102886.88;5031347;28;20033;-48
2024/02/20 05:49:06;;;;;;;26.08;5.03;;;;;;;12.01;74.97;102886.88;5031821;28;20029;-46
2024/02/20 05:51:33;;;;;;;28.00;4.22;;;;;;;12.09;74.33;102882.84;5031080;28;20033;-53
2024/02/20 05:53:58;;;;;;;21.30;4.20;;;;;;;12.11;74.15;102892.53;5031702;28;20579;-52
2024/02/20 05:56:23;;;;;;;26.42;4.13;;;;;;;11.90;75.31;102886.44;5031695;28;20121;-46
2024/02/20 05:58:49;;;;;;;25.52;4.32;;;;;;;12.06;74.50;102896.69;5031217;28;20037;-45
2024/02/20 06:01:15;;;;;;;26.98;4.43;;;;;;;11.90;75.80;102898.63;5031179;28;20380;-50
2024/02/20 06:03:41;;;;;;;25.50;4.07;;;;;;;12.03;74.97;102899.16;5031045;28;20068;-47
2024/02/20 06:06:08;;;;;;;24.10;4.50;;;;;;;11.96;74.91;102894.53;5031517;28;20171;-48
2024/02/20 06:08:34;;;;;;;28.83;4.75;;;;;;;12.04;74.46;102897.44;5031093;28;20044;-51
2024/02/20 06:10:59;;;;;;;26.38;5.18;;;;;;;12.08;74.56;102897.63;5029599;28;20034;-47
2024/02/20 06:13:25;;;;;;;27.00;4.20;;;;;;;12.11;74.25;102889.91;5031391;28;20136;-48
2024/02/20 06:15:50;;;;;;;22.83;3.80;;;;;;;12.07;73.91;102887.13;5030751;28;20029;-48
2024/02/20 06:18:16;;;;;;;24.63;4.10;;;;;;;12.02;74.66;102896.50;5031612;28;20037;-47
2024/02/20 06:20:45;;;;;;;28.23;4.75;;;;;;;12.01;74.58;102887.78;5030257;28;20037;-53
2024/02/20 06:23:10;;;;;;;23.77;4.72;;;;;;;12.04;74.52;102881.75;5031407;28;20041;-49
2024/02/20 06:25:36;;;;;;;25.27;4.32;;;;;;;12.03;74.35;102879.97;5030609;28;20033;-48
2024/02/20 06:28:02;;;;;;;26.10;4.88;;;;;;;12.03;74.35;102869.53;5031560;28;20057;-48
2024/02/20 06:30:27;;;;;;;23.35;4.55;;;;;;;12.02;74.49;102870.34;5030521;28;20033;-49
2024/02/20 06:32:53;;;;;;;21.42;4.10;;;;;;;11.95;74.56;102881.41;5031455;28;20484;-49
2024/02/20 06:35:18;;;;;;;30.17;4.50;;;;;;;12.00;74.46;102875.53;5033391;28;20038;-46
2024/02/20 06:37:44;;;;;;;21.90;3.75;;;;;;;12.03;74.81;102867.81;5030764;28;20029;-48
2024/02/20 06:40:09;;;;;;;21.98;4.45;;;;;;;12.00;74.75;102874.66;5030284;28;20053;-51
2024/02/20 06:42:35;;;;;;;28.92;4.32;;;;;;;12.01;75.10;102877.34;5030111;28;20508;-50
2024/02/20 06:45:00;;;;;;;21.33;4.35;;;;;;;12.05;74.54;102874.00;5031232;28;20026;-50
2024/02/20 06:47:25;;;;;;;25.13;4.18;;;;;;;12.03;74.49;102878.25;5031166;28;20057;-48
2024/02/20 06:49:51;;;;;;;33.03;4.47;;;;;;;11.97;74.37;102877.13;5030327;28;20056;-47
2024/02/20 06:52:16;;;;;;;23.38;4.50;;;;;;;11.96;74.54;102878.84;5030656;28;20033;-46
2024/02/20 06:54:41;;;;;;;24.15;4.32;;;;;;;11.93;74.20;102883.97;5029939;28;20144;-46
2024/02/20 06:57:07;;;;;;;19.83;4.15;;;;;;;11.94;74.27;102877.03;5029731;28;20038;-49
2024/02/20 06:59:32;;;;;;;22.60;4.68;;;;;;;11.89;74.39;102870.72;5029429;28;20111;-47
2024/02/20 07:01:58;;;;;;;24.90;4.85;;;;;;;11.85;74.33;102876.63;5030404;28;20041;-50
2024/02/20 07:04:23;;;;;;;30.27;5.28;;;;;;;11.87;74.17;102875.00;5029616;28;20037;-47
2024/02/20 07:06:48;;;;;;;23.90;5.40;;;;;;;11.73;74.86;102875.31;5030059;28;20045;-47
2024/02/20 07:09:14;;;;;;;27.40;5.85;;;;;;;11.77;74.86;102874.59;5030343;28;20030;-49
2024/02/20 07:11:45;;;;;;;30.05;5.72;;;;;;;11.81;74.67;102867.78;5029753;28;20427;-49
2024/02/20 07:14:11;;;;;;;21.05;5.38;;;;;;;11.77;74.88;102860.69;5030973;28;20042;-47
2024/02/20 07:16:36;;;;;;;31.38;5.78;;;;;;;11.76;75.32;102869.34;5030358;28;20029;-48
2024/02/20 07:19:02;;;;;;;22.17;5.45;;;;;;;11.88;75.22;102868.94;5029999;28;20038;-47
2024/02/20 07:21:28;;;;;;;24.98;6.45;;;;;;;11.93;75.00;102870.91;5029855;28;20510;-49
2024/02/20 07:23:53;;;;;;;24.90;6.35;;;;;;;12.00;75.40;102864.19;5029732;28;20033;-46
2024/02/20 07:26:18;;;;;;;29.33;6.43;;;;;;;12.05;75.40;102871.38;5029977;28;20052;-49
2024/02/20 07:28:43;;;;;;;26.65;6.28;;;;;;;12.17;75.52;102868.34;5029508;28;20080;-52
2024/02/20 07:31:09;;;;;;;32.38;6.63;;;;;;;12.14;75.40;102863.88;5029560;28;20091;-49
2024/02/20 07:33:34;;;;;;;32.63;6.47;;;;;;;12.23;75.53;102862.44;5029404;28;20068;-50
2024/02/20 07:35:59;;;;;;;27.52;6.28;;;;;;;12.27;75.71;102862.63;5029759;28;20334;-48
2024/02/20 07:38:25;;;;;;;23.33;5.55;;;;;;;12.42;75.36;102867.56;5029734;28;20037;-48
2024/02/20 07:40:50;;;;;;;30.17;6.40;;;;;;;12.54;75.12;102863.66;5028285;28;20084;-53
2024/02/20 07:43:15;;;;;;;24.25;6.00;;;;;;;12.60;75.12;102863.00;5029927;28;20125;-46
2024/02/20 07:45:41;;;;;;;30.00;5.85;;;;;;;12.52;75.49;102862.72;5029280;28;20029;-47
2024/02/20 07:48:11;;;;;;;27.95;5.95;;;;;;;12.57;75.50;102871.63;5029831;28;20658;-47
2024/02/20 07:50:36;;;;;;;31.75;6.65;;;;;;;12.66;75.37;102867.56;5028813;28;20039;-46
2024/02/20 07:53:02;;;;;;;28.05;6.10;;;;;;;12.56;75.44;102867.22;5029760;28;20102;-47
2024/02/20 07:55:27;;;;;;;30.77;6.40;;;;;;;12.73;75.15;102872.19;5029815;28;20033;-51
2024/02/20 07:57:52;;;;;;;32.40;6.43;;;;;;;12.67;75.54;102878.09;5029094;28;20034;-47
2024/02/20 08:00:18;;;;;;;36.60;6.72;;;;;;;12.71;74.89;102881.69;5028968;28;20489;-49
2024/02/20 08:02:43;;;;;;;34.15;6.43;;;;;;;12.24;76.20;102878.22;5029023;28;20041;-46
2024/02/20 08:05:11;;;;;;;27.73;5.85;;;;;;;12.32;76.42;102883.75;5030252;28;20083;-46
2024/02/20 08:07:37;;;;;;;34.20;5.60;;;;;;;12.74;75.24;102879.22;5029612;28;20128;-49
2024/02/20 08:10:03;;;;;;;26.25;5.32;;;;;;;12.80;74.73;102877.72;5031872;28;20040;-47
2024/02/20 08:12:29;;;;;;;28.58;5.80;;;;;;;12.99;74.13;102869.66;5033592;28;20038;-46
2024/02/20 08:14:54;;;;;;;27.90;5.70;;;;;;;12.94;74.03;102868.59;5032312;28;20408;-47
2024/02/20 08:17:22;;;;;;;31.58;6.43;;;;;;;12.83;74.10;102866.44;5033748;28;20033;-47
2024/02/20 08:19:47;;;;;;;32.72;5.70;;;;;;;12.94;74.07;102872.94;5032558;28;20038;-49
2024/02/20 08:22:13;;;;;;;25.65;5.13;;;;;;;12.97;73.25;102868.72;5032504;28;20041;-48
2024/02/20 08:24:38;;;;;;;29.95;5.28;;;;;;;12.83;73.90;102869.94;5032987;28;20061;-52
2024/02/20 08:27:03;;;;;;;24.63;4.50;;;;;;;13.12;73.30;102870.06;5033640;28;20124;-45
2024/02/20 08:29:29;;;;;;;23.08;5.03;;;;;;;13.23;73.27;102871.41;5033214;28;20043;-46
2024/02/20 08:31:57;;;;;;;26.58;4.90;;;;;;;13.22;72.91;102880.97;5033321;28;20091;-49
2024/02/20 08:34:26;;;;;;;27.48;4.80;;;;;;;13.25;72.74;102870.59;5034771;28;20056;-46
2024/02/20 08:36:52;;;;;;;23.98;4.55;;;;;;;13.15;72.50;102865.00;5037566;28;21536;-50
2024/02/20 08:39:17;;;;;;;28.95;5.05;;;;;;;13.38;72.01;102853.56;5040756;28;20057;-47
2024/02/20 08:41:42;;;;;;;23.92;4.40;;;;;;;13.30;71.86;102861.16;5038889;28;20499;-52
2024/02/20 08:44:08;;;;;;;22.63;4.30;;;;;;;13.14;72.13;102868.44;5038338;28;20492;-46
2024/02/20 08:46:34;;;;;;;26.52;4.80;;;;;;;13.34;71.72;102863.06;5036442;28;20029;-48
2024/02/20 08:48:59;;;;;;;26.50;4.97;;;;;;;13.55;71.13;102854.09;5033140;28;20029;-48
2024/02/20 08:51:25;;;;;;;28.20;5.00;;;;;;;13.52;70.96;102860.16;5033350;28;20451;-48
2024/02/20 08:53:50;;;;;;;23.67;4.40;;;;;;;13.67;70.72;102858.00;5033911;28;20450;-47
2024/02/20 08:56:15;;;;;;;23.90;4.82;;;;;;;13.50;71.42;102856.59;5034270;28;20060;-52
2024/02/20 08:58:41;;;;;;;25.75;4.63;;;;;;;13.64;70.60;102855.31;5035528;28;20499;-48
2024/02/20 09:01:06;;;;;;;21.02;4.32;;;;;;;13.50;70.89;102853.06;5032976;28;20038;-46
2024/02/20 09:03:32;;;;;;;26.52;4.95;;;;;;;13.18;72.45;102862.47;5033373;28;20069;-51
2024/02/20 09:05:57;;;;;;;20.90;3.97;;;;;;;13.70;71.28;102855.50;5032366;28;20124;-48
2024/02/20 09:08:22;;;;;;;30.38;4.60;;;;;;;13.58;71.75;102847.25;5032635;28;20063;-51
2024/02/20 09:10:48;;;;;;;23.35;4.95;;;;;;;13.75;71.75;102850.41;5031338;28;20037;-47
2024/02/20 09:13:13;;;;;;;23.70;4.65;;;;;;;13.89;71.15;102853.47;5032349;28;20034;-47
2024/02/20 09:15:39;;;;;;;23.80;4.80;;;;;;;14.08;70.70;102855.81;5032847;28;20088;-46
2024/02/20 09:18:04;;;;;;;20.83;4.13;;;;;;;13.98;71.02;102857.25;5032422;28;20492;-50
2024/02/20 09:20:30;;;;;;;23.08;4.95;;;;;;;14.23;70.45;102854.53;5031926;28;20036;-47
2024/02/20 09:22:56;;;;;;;18.40;4.43;;;;;;;14.33;70.45;102852.19;5031938;28;20112;-48
2024/02/20 09:25:22;;;;;;;24.40;4.70;;;;;;;14.34;70.41;102848.69;5032347;28;20404;-52
2024/02/20 09:27:47;;;;;;;21.25;4.07;;;;;;;14.17;70.61;102845.59;5031599;28;20040;-49
2024/02/20 09:30:13;;;;;;;24.98;4.32;;;;;;;14.12;70.68;102837.59;5031561;28;20041;-50
2024/02/20 09:32:40;;;;;;;24.50;4.55;;;;;;;14.26;69.90;102845.88;5030734;28;20029;-48
2024/02/20 09:35:06;;;;;;;22.40;4.47;;;;;;;14.23;70.62;102844.03;5032159;28;20443;-48
2024/02/20 09:37:31;;;;;;;20.58;4.55;;;;;;;14.04;71.01;102844.31;5031892;28;20116;-48
2024/02/20 09:39:57;;;;;;;26.63;4.53;;;;;;;14.23;71.06;102845.78;5028831;28;20120;-46
2024/02/20 09:42:27;;;;;;;28.70;4.85;;;;;;;14.13;70.82;102839.38;5031651;28;20025;-47
2024/02/20 09:44:57;;;;;;;19.83;4.38;;;;;;;14.38;70.25;102835.78;5031579;28;20041;-46
2024/02/20 09:47:22;;;;;;;23.88;4.55;;;;;;;14.34;70.06;102831.22;5031884;28;20448;-48
2024/02/20 09:49:49;;;;;;;24.80;4.85;;;;;;;14.54;69.70;102821.34;5030761;28;20182;-52
2024/02/20 09:52:14;;;;;;;27.50;5.03;;;;;;;14.51;69.44;102823.91;5031939;28;20124;-49
2024/02/20 09:54:43;;;;;;;23.65;4.68;;;;;;;14.15;69.84;102828.91;5031323;28;20124;-49
2024/02/20 09:57:09;;;;;;;21.70;4.43;;;;;;;14.03;70.69;102824.19;5031804;28;20082;-48
2024/02/20 09:59:35;;;;;;;21.42;4.55;;;;;;;13.74;70.63;102817.16;5031215;28;20021;-46
2024/02/20 10:02:02;;;;;;;23.15;4.38;;;;;;;13.82;71.09;102818.31;5031718;28;20437;-51
2024/02/20 10:04:33;;;;;;;21.92;4.68;;;;;;;14.39;69.90;102810.44;5031738;28;20030;-50
2024/02/20 10:07:03;;;;;;;27.27;4.40;;;;;;;14.38;69.42;102819.13;5033806;28;20037;-48
2024/02/20 10:09:30;;;;;;;22.98;3.83;;;;;;;14.07;69.17;102815.59;5034801;28;20037;-51
2024/02/20 10:11:56;;;;;;;22.15;4.25;;;;;;;14.48;68.09;102818.53;5031396;28;20041;-50
2024/02/20 10:14:28;;;;;;;21.20;3.80;;;;;;;14.61;68.21;102812.78;5031237;28;20048;-50
2024/02/20 10:17:00;;;;;;;27.63;4.18;;;;;;;14.40;68.17;102804.31;5030843;28;20060;-51
2024/02/20 10:19:26;;;;;;;25.95;4.22;;;;;;;14.37;68.53;102805.13;5031477;28;20407;-49
2024/02/20 10:21:51;;;;;;;24.92;4.95;;;;;;;14.27;68.35;102810.94;5029297;28;20124;-48
2024/02/20 10:24:17;;;;;;;17.63;4.07;;;;;;;14.43;68.23;102802.69;5031084;28;20042;-47
2024/02/20 10:26:47;;;;;;;19.70;4.20;;;;;;;14.50;68.11;102801.13;5031062;28;20029;-48
2024/02/20 10:29:13;;;;;;;30.45;4.18;;;;;;;14.92;66.90;102793.50;5030906;28;20044;-50
2024/02/20 10:31:39;;;;;;;26.63;4.03;;;;;;;15.05;67.12;102789.47;5029241;28;20117;-47
2024/02/20 10:34:05;;;;;;;24.27;4.13;;;;;;;15.43;65.88;102797.41;5030786;28;20555;-46
2024/02/20 10:36:30;;;;;;;25.90;4.75;;;;;;;15.49;64.91;102799.28;5031204;28;20099;-46
2024/02/20 10:39:14;;;;;;;20.05;4.38;;;;;;;15.09;64.27;102796.56;5030517;28;20039;-49
2024/02/20 10:41:41;;;;;;;21.80;4.70;;;;;;;14.87;65.92;102797.75;5030134;28;20120;-52
2024/02/20 10:44:06;;;;;;;20.98;5.25;;;;;;;15.06;65.28;102793.88;5030883;28;20033;-50
2024/02/20 10:46:36;;;;;;;24.33;4.90;;;;;;;15.02;64.92;102792.88;5030984;28;20507;-46
2024/02/20 10:49:22;;;;;;;25.35;4.43;;;;;;;14.99;64.36;102804.22;5030491;28;20041;-47
2024/02/20 10:51:48;;;;;;;26.33;4.53;;;;;;;14.77;64.75;102800.97;5030155;28;20033;-47
2024/02/20 10:54:16;;;;;;;19.75;4.47;;;;;;;14.84;64.21;102801.16;5029288;28;20504;-46
2024/02/20 10:56:42;;;;;;;24.65;4.82;;;;;;;14.48;65.28;102794.91;5030257;28;20106;-49
2024/02/20 10:59:09;;;;;;;21.27;4.25;;;;;;;14.97;64.12;102789.25;5031191;28;20030;-45
2024/02/20 11:01:37;;;;;;;24.30;4.43;;;;;;;14.80;64.31;102791.44;5030311;28;20053;-51
2024/02/20 11:04:03;;;;;;;20.27;4.40;;;;;;;14.89;64.51;102794.28;5030626;28;20030;-47
2024/02/20 11:06:32;;;;;;;21.45;4.57;;;;;;;14.51;64.41;102800.28;5030719;28;20103;-46
2024/02/20 11:09:10;;;;;;;26.60;4.55;;;;;;;14.60;64.17;102784.75;5029992;28;20037;-47
2024/02/20 11:11:36;;;;;;;22.30;4.97;;;;;;;14.65;65.23;102785.78;5029309;28;20042;-45
2024/02/20 11:14:02;;;;;;;29.02;4.60;;;;;;;14.96;62.85;102782.22;5030075;28;20056;-50